NKS894 KFLL-TIST
Flight info
| Callsign | NKS894 |
|---|---|
| Flight time | 2h 17m |
| Altitude | 35000 |
| Route | SNAPR2 SUMAC Y421 HAGIT Y290 JETSS |
| Aircraft | A320/M-SDE3FGHIRWY/LB1 |
Departure
| Time | 2026-04-24 21:58 |
|---|---|
| Airport | Fort Lauderdale Hollywood International Airport (KFLL) |
Arrival
| Time | 2026-04-25 00:15 |
|---|---|
| Airport | Cyril E. King Airport (TIST) |
| Time | Latitude | Longitude | Altitude | Speed | Heading |
|---|---|---|---|---|---|
| 2026-04-24 18:54 | 26.07037 | -80.14579 | 16 ft | 0 kts | 19° |
| 2026-04-24 21:43 | 26.07036 | -80.14580 | 16 ft | 2 kts | 19° |
| 2026-04-24 21:43 | 26.07022 | -80.14586 | 18 ft | 4 kts | 11° |
| 2026-04-24 21:43 | 26.07005 | -80.14591 | 16 ft | 4 kts | 56° |
| 2026-04-24 21:43 | 26.06996 | -80.14608 | 16 ft | 0 kts | 71° |
| 2026-04-24 21:46 | 26.06997 | -80.14607 | 16 ft | 1 kts | 68° |
| 2026-04-24 21:46 | 26.07001 | -80.14606 | 16 ft | 0 kts | 27° |
| 2026-04-24 21:46 | 26.07004 | -80.14609 | 17 ft | 0 kts | 346° |
| 2026-04-24 21:47 | 26.07005 | -80.14614 | 17 ft | 0 kts | 303° |
| 2026-04-24 21:47 | 26.07004 | -80.14619 | 18 ft | 3 kts | 278° |
| 2026-04-24 21:47 | 26.06995 | -80.14670 | 16 ft | 0 kts | 265° |
| 2026-04-24 21:47 | 26.06995 | -80.14671 | 16 ft | 0 kts | 265° |
| 2026-04-24 21:48 | 26.06995 | -80.14673 | 16 ft | 0 kts | 265° |
| 2026-04-24 21:48 | 26.06995 | -80.14674 | 16 ft | 1 kts | 264° |
| 2026-04-24 21:48 | 26.06994 | -80.14682 | 16 ft | 0 kts | 262° |
| 2026-04-24 21:51 | 26.06993 | -80.14690 | 16 ft | 2 kts | 261° |
| 2026-04-24 21:51 | 26.06978 | -80.14719 | 16 ft | 6 kts | 234° |
| 2026-04-24 21:51 | 26.06950 | -80.14760 | 16 ft | 7 kts | 232° |
| 2026-04-24 21:52 | 26.06919 | -80.14805 | 16 ft | 8 kts | 238° |
| 2026-04-24 21:52 | 26.06911 | -80.14866 | 16 ft | 8 kts | 269° |
| 2026-04-24 21:52 | 26.06911 | -80.14930 | 16 ft | 9 kts | 270° |
| 2026-04-24 21:52 | 26.06911 | -80.14999 | 16 ft | 9 kts | 271° |
| 2026-04-24 21:53 | 26.06911 | -80.15070 | 16 ft | 9 kts | 266° |
| 2026-04-24 21:53 | 26.06880 | -80.15125 | 16 ft | 9 kts | 195° |
| 2026-04-24 21:53 | 26.06814 | -80.15130 | 16 ft | 10 kts | 181° |
| 2026-04-24 21:53 | 26.06741 | -80.15132 | 18 ft | 9 kts | 183° |
| 2026-04-24 21:54 | 26.06698 | -80.15158 | 21 ft | 6 kts | 232° |
| 2026-04-24 21:54 | 26.06695 | -80.15199 | 21 ft | 5 kts | 269° |
| 2026-04-24 21:54 | 26.06695 | -80.15243 | 20 ft | 8 kts | 270° |
| 2026-04-24 21:54 | 26.06695 | -80.15334 | 16 ft | 13 kts | 270° |
| 2026-04-24 21:55 | 26.06697 | -80.15441 | 16 ft | 14 kts | 270° |
| 2026-04-24 21:55 | 26.06697 | -80.15490 | 16 ft | 6 kts | 270° |
| 2026-04-24 21:55 | 26.06697 | -80.15547 | 16 ft | 9 kts | 270° |
| 2026-04-24 21:55 | 26.06698 | -80.15622 | 16 ft | 11 kts | 270° |
| 2026-04-24 21:56 | 26.06698 | -80.15689 | 16 ft | 5 kts | 269° |
| 2026-04-24 21:56 | 26.06697 | -80.15768 | 16 ft | 9 kts | 266° |
| 2026-04-24 21:56 | 26.06654 | -80.15820 | 16 ft | 10 kts | 191° |
| 2026-04-24 21:56 | 26.06598 | -80.15822 | 20 ft | 5 kts | 166° |
| 2026-04-24 21:57 | 26.06589 | -80.15777 | 19 ft | 17 kts | 91° |
| 2026-04-24 21:57 | 26.06584 | -80.15355 | 22 ft | 89 kts | 91° |
| 2026-04-24 21:57 | 26.06576 | -80.14455 | 49 ft | 137 kts | 91° |
| 2026-04-24 21:57 | 26.06567 | -80.13392 | 607 ft | 135 kts | 92° |
| 2026-04-24 21:58 | 26.06554 | -80.12315 | 1147 ft | 141 kts | 91° |
| 2026-04-24 21:58 | 26.06564 | -80.11158 | 1543 ft | 161 kts | 91° |
| 2026-04-24 21:58 | 26.06618 | -80.09848 | 1908 ft | 181 kts | 89° |
| 2026-04-24 21:58 | 26.06652 | -80.08364 | 2198 ft | 205 kts | 92° |
| 2026-04-24 21:59 | 26.06673 | -80.06665 | 2582 ft | 230 kts | 91° |
| 2026-04-24 21:59 | 26.06691 | -80.04791 | 3032 ft | 254 kts | 90° |
| 2026-04-24 21:59 | 26.06708 | -80.02786 | 3819 ft | 265 kts | 90° |
| 2026-04-24 21:59 | 26.06726 | -80.00710 | 4742 ft | 271 kts | 90° |
| 2026-04-24 22:00 | 26.06729 | -79.98601 | 5620 ft | 277 kts | 90° |
| 2026-04-24 22:00 | 26.06714 | -79.96424 | 6507 ft | 283 kts | 90° |
| 2026-04-24 22:00 | 26.06691 | -79.94211 | 7326 ft | 289 kts | 90° |
| 2026-04-24 22:00 | 26.06664 | -79.91947 | 8181 ft | 293 kts | 90° |
| 2026-04-24 22:01 | 26.06637 | -79.89663 | 9047 ft | 298 kts | 90° |
| 2026-04-24 22:01 | 26.06610 | -79.87350 | 9887 ft | 302 kts | 90° |
| 2026-04-24 22:01 | 26.06591 | -79.85775 | 10298 ft | 311 kts | 90° |
| 2026-04-24 22:01 | 26.06541 | -79.83287 | 10560 ft | 334 kts | 94° |
| 2026-04-24 22:02 | 26.06186 | -79.80687 | 11037 ft | 347 kts | 99° |
| 2026-04-24 22:02 | 26.05762 | -79.78008 | 11732 ft | 352 kts | 99° |
| 2026-04-24 22:02 | 26.05340 | -79.75297 | 12446 ft | 357 kts | 99° |
| 2026-04-24 22:02 | 26.04920 | -79.72581 | 13132 ft | 362 kts | 99° |
| 2026-04-24 22:03 | 26.04488 | -79.69793 | 13816 ft | 367 kts | 99° |
| 2026-04-24 22:03 | 26.04049 | -79.66957 | 14424 ft | 372 kts | 99° |
| 2026-04-24 22:03 | 26.03592 | -79.64132 | 15020 ft | 376 kts | 101° |
| 2026-04-24 22:03 | 26.03014 | -79.61258 | 15616 ft | 380 kts | 104° |
| 2026-04-24 22:04 | 26.02353 | -79.58413 | 16219 ft | 384 kts | 105° |
| 2026-04-24 22:04 | 26.01642 | -79.55550 | 16815 ft | 388 kts | 106° |
| 2026-04-24 22:04 | 26.00910 | -79.52637 | 17430 ft | 392 kts | 106° |
| 2026-04-24 22:04 | 26.00187 | -79.49710 | 18031 ft | 396 kts | 105° |
| 2026-04-24 22:05 | 25.99467 | -79.46739 | 18578 ft | 400 kts | 105° |
| 2026-04-24 22:05 | 25.98758 | -79.43755 | 19107 ft | 403 kts | 105° |
| 2026-04-24 22:05 | 25.98036 | -79.40690 | 19652 ft | 407 kts | 105° |
| 2026-04-24 22:05 | 25.97253 | -79.37675 | 20179 ft | 411 kts | 111° |
| 2026-04-24 22:06 | 25.96228 | -79.34685 | 20698 ft | 414 kts | 111° |
| 2026-04-24 22:06 | 25.95196 | -79.31711 | 21214 ft | 417 kts | 111° |
| 2026-04-24 22:06 | 25.94138 | -79.28675 | 21717 ft | 420 kts | 111° |
| 2026-04-24 22:06 | 25.93085 | -79.25649 | 22204 ft | 424 kts | 111° |
| 2026-04-24 22:07 | 25.92009 | -79.22564 | 22699 ft | 427 kts | 111° |
| 2026-04-24 22:07 | 25.90934 | -79.19483 | 23191 ft | 430 kts | 111° |
| 2026-04-24 22:07 | 25.89848 | -79.16375 | 23652 ft | 434 kts | 111° |
| 2026-04-24 22:07 | 25.88759 | -79.13262 | 24053 ft | 437 kts | 111° |
| 2026-04-24 22:08 | 25.87646 | -79.10083 | 24461 ft | 440 kts | 111° |
| 2026-04-24 22:08 | 25.86537 | -79.06918 | 24857 ft | 442 kts | 111° |
| 2026-04-24 22:08 | 25.85412 | -79.03711 | 25264 ft | 446 kts | 112° |
| 2026-04-24 22:08 | 25.84295 | -79.00515 | 25660 ft | 448 kts | 111° |
| 2026-04-24 22:09 | 25.83167 | -78.97285 | 26026 ft | 452 kts | 112° |
| 2026-04-24 22:09 | 25.82019 | -78.94002 | 26418 ft | 455 kts | 112° |
| 2026-04-24 22:09 | 25.80871 | -78.90732 | 26813 ft | 457 kts | 112° |
| 2026-04-24 22:09 | 25.79717 | -78.87447 | 27194 ft | 460 kts | 112° |
| 2026-04-24 22:10 | 25.78543 | -78.84115 | 27565 ft | 463 kts | 112° |
| 2026-04-24 22:10 | 25.77376 | -78.80795 | 27936 ft | 465 kts | 112° |
| 2026-04-24 22:10 | 25.76192 | -78.77424 | 28336 ft | 468 kts | 112° |
| 2026-04-24 22:10 | 25.75011 | -78.74071 | 28714 ft | 471 kts | 112° |
| 2026-04-24 22:11 | 25.73579 | -78.70786 | 29092 ft | 472 kts | 122° |
| 2026-04-24 22:11 | 25.71791 | -78.67760 | 29476 ft | 474 kts | 126° |
| 2026-04-24 22:11 | 25.69927 | -78.64739 | 29885 ft | 476 kts | 126° |
| 2026-04-24 22:11 | 25.68054 | -78.61699 | 30236 ft | 478 kts | 126° |
| 2026-04-24 22:12 | 25.66163 | -78.58620 | 30570 ft | 480 kts | 126° |
| 2026-04-24 22:12 | 25.64282 | -78.55551 | 30902 ft | 482 kts | 126° |
| 2026-04-24 22:12 | 25.62404 | -78.52489 | 31233 ft | 484 kts | 126° |
| 2026-04-24 22:12 | 25.60515 | -78.49412 | 31565 ft | 486 kts | 126° |
| 2026-04-24 22:13 | 25.58705 | -78.46259 | 31954 ft | 487 kts | 120° |
| 2026-04-24 22:13 | 25.57290 | -78.42860 | 32438 ft | 486 kts | 111° |
| 2026-04-24 22:13 | 25.56280 | -78.39253 | 32925 ft | 485 kts | 106° |
| 2026-04-24 22:13 | 25.55373 | -78.35685 | 33414 ft | 484 kts | 107° |
| 2026-04-24 22:14 | 25.54454 | -78.32082 | 33914 ft | 482 kts | 107° |
| 2026-04-24 22:14 | 25.53549 | -78.28534 | 34339 ft | 481 kts | 107° |
| 2026-04-24 22:14 | 25.52636 | -78.24961 | 34727 ft | 480 kts | 107° |
| 2026-04-24 22:14 | 25.51729 | -78.21425 | 34928 ft | 481 kts | 107° |
| 2026-04-24 22:15 | 25.50821 | -78.17889 | 34985 ft | 475 kts | 107° |
| 2026-04-24 22:15 | 25.49017 | -78.10872 | 34984 ft | 470 kts | 107° |
| 2026-04-24 22:16 | 25.47224 | -78.03912 | 34982 ft | 470 kts | 107° |
| 2026-04-24 22:16 | 25.45435 | -77.96989 | 34984 ft | 470 kts | 107° |
| 2026-04-24 22:17 | 25.43629 | -77.90049 | 34987 ft | 472 kts | 107° |
| 2026-04-24 22:17 | 25.41806 | -77.83018 | 34987 ft | 473 kts | 107° |
| 2026-04-24 22:18 | 25.40000 | -77.76047 | 34987 ft | 473 kts | 107° |
| 2026-04-24 22:18 | 25.38177 | -77.69054 | 34987 ft | 473 kts | 107° |
| 2026-04-24 22:19 | 25.36346 | -77.62061 | 34994 ft | 473 kts | 107° |
| 2026-04-24 22:19 | 25.34526 | -77.55112 | 34985 ft | 473 kts | 109° |
| 2026-04-24 22:20 | 25.32692 | -77.48091 | 34981 ft | 474 kts | 109° |
| 2026-04-24 22:20 | 25.30867 | -77.41113 | 34983 ft | 475 kts | 109° |
| 2026-04-24 22:21 | 25.28668 | -77.34269 | 34981 ft | 470 kts | 121° |
| 2026-04-24 22:21 | 25.25254 | -77.28178 | 34984 ft | 466 kts | 127° |
| 2026-04-24 22:22 | 25.21735 | -77.22149 | 34978 ft | 467 kts | 127° |
| 2026-04-24 22:22 | 25.18207 | -77.16095 | 34978 ft | 467 kts | 128° |
| 2026-04-24 22:23 | 25.14691 | -77.10071 | 34979 ft | 468 kts | 128° |
| 2026-04-24 22:23 | 25.11172 | -77.04063 | 34981 ft | 468 kts | 128° |
| 2026-04-24 22:24 | 25.07644 | -76.98041 | 34983 ft | 468 kts | 128° |
| 2026-04-24 22:24 | 25.04103 | -76.91993 | 34968 ft | 468 kts | 128° |
| 2026-04-24 22:25 | 25.00572 | -76.85968 | 34970 ft | 468 kts | 128° |
| 2026-04-24 22:25 | 24.97036 | -76.79963 | 35000 ft | 466 kts | 128° |
| 2026-04-24 22:26 | 24.93510 | -76.73986 | 35002 ft | 465 kts | 128° |
| 2026-04-24 22:26 | 24.89995 | -76.68027 | 35002 ft | 464 kts | 128° |
| 2026-04-24 22:27 | 24.86470 | -76.62048 | 35000 ft | 464 kts | 128° |
| 2026-04-24 22:27 | 24.82965 | -76.56104 | 34998 ft | 464 kts | 128° |
| 2026-04-24 22:28 | 24.79445 | -76.50154 | 34989 ft | 463 kts | 127° |
| 2026-04-24 22:28 | 24.75909 | -76.44188 | 34987 ft | 463 kts | 128° |
| 2026-04-24 22:29 | 24.70652 | -76.35328 | 34991 ft | 463 kts | 128° |
| 2026-04-24 22:29 | 24.67131 | -76.29388 | 34981 ft | 463 kts | 127° |
| 2026-04-24 22:30 | 24.63592 | -76.23441 | 34988 ft | 463 kts | 127° |
| 2026-04-24 22:30 | 24.60071 | -76.17534 | 34989 ft | 462 kts | 127° |
| 2026-04-24 22:31 | 24.56569 | -76.11644 | 34980 ft | 463 kts | 126° |
| 2026-04-24 22:31 | 24.53161 | -76.05623 | 34980 ft | 464 kts | 125° |
| 2026-04-24 22:32 | 24.49817 | -75.99539 | 34984 ft | 464 kts | 125° |
| 2026-04-24 22:32 | 24.46463 | -75.93494 | 34986 ft | 464 kts | 125° |
| 2026-04-24 22:33 | 24.43069 | -75.87467 | 34985 ft | 464 kts | 125° |
| 2026-04-24 22:33 | 24.39690 | -75.81458 | 34986 ft | 464 kts | 125° |
| 2026-04-24 22:34 | 24.36312 | -75.75458 | 34977 ft | 464 kts | 127° |
| 2026-04-24 22:34 | 24.32912 | -75.69406 | 34977 ft | 464 kts | 127° |
| 2026-04-24 22:35 | 24.29531 | -75.63400 | 34969 ft | 464 kts | 128° |
| 2026-04-24 22:35 | 24.26127 | -75.57371 | 34977 ft | 464 kts | 127° |
| 2026-04-24 22:36 | 24.22724 | -75.51357 | 34982 ft | 464 kts | 128° |
| 2026-04-24 22:36 | 24.19308 | -75.45334 | 34986 ft | 464 kts | 128° |
| 2026-04-24 22:37 | 24.15935 | -75.39359 | 34985 ft | 463 kts | 129° |
| 2026-04-24 22:37 | 24.12538 | -75.33359 | 34999 ft | 462 kts | 129° |
| 2026-04-24 22:38 | 24.09147 | -75.27396 | 35001 ft | 461 kts | 129° |
| 2026-04-24 22:38 | 24.05777 | -75.21471 | 35000 ft | 460 kts | 129° |
| 2026-04-24 22:39 | 24.02407 | -75.15541 | 34996 ft | 459 kts | 129° |
| 2026-04-24 22:39 | 23.99014 | -75.09600 | 34993 ft | 459 kts | 129° |
| 2026-04-24 22:40 | 23.95647 | -75.03695 | 34972 ft | 459 kts | 130° |
| 2026-04-24 22:40 | 23.92265 | -74.97763 | 34985 ft | 458 kts | 130° |
| 2026-04-24 22:41 | 23.88892 | -74.91867 | 34987 ft | 458 kts | 130° |
| 2026-04-24 22:41 | 23.86068 | -74.86942 | 34986 ft | 458 kts | 130° |
| 2026-04-24 22:42 | 23.82140 | -74.80099 | 34988 ft | 458 kts | 130° |
| 2026-04-24 22:42 | 23.78752 | -74.74199 | 34986 ft | 458 kts | 130° |
| 2026-04-24 22:43 | 23.75363 | -74.68287 | 34983 ft | 458 kts | 130° |
| 2026-04-24 22:43 | 23.71994 | -74.62422 | 34985 ft | 458 kts | 130° |
| 2026-04-24 22:44 | 23.68605 | -74.56546 | 34980 ft | 458 kts | 130° |
| 2026-04-24 22:44 | 23.65223 | -74.50679 | 34976 ft | 458 kts | 130° |
| 2026-04-24 22:45 | 23.61827 | -74.44802 | 34983 ft | 458 kts | 130° |
| 2026-04-24 22:45 | 23.58981 | -74.39885 | 34986 ft | 458 kts | 130° |
| 2026-04-24 22:46 | 23.55596 | -74.34040 | 34946 ft | 457 kts | 130° |
| 2026-04-24 22:46 | 23.52211 | -74.28193 | 34972 ft | 456 kts | 130° |
| 2026-04-24 22:47 | 23.48819 | -74.22344 | 34983 ft | 455 kts | 130° |
| 2026-04-24 22:47 | 23.45449 | -74.16532 | 34986 ft | 455 kts | 130° |
| 2026-04-24 22:48 | 23.42087 | -74.10749 | 34984 ft | 454 kts | 130° |
| 2026-04-24 22:48 | 23.38688 | -74.04921 | 34984 ft | 454 kts | 130° |
| 2026-04-24 22:49 | 23.35308 | -73.99131 | 34966 ft | 454 kts | 130° |
| 2026-04-24 22:49 | 23.31928 | -73.93328 | 34974 ft | 454 kts | 130° |
| 2026-04-24 22:50 | 23.28558 | -73.87538 | 34976 ft | 454 kts | 130° |
| 2026-04-24 22:50 | 23.25180 | -73.81761 | 34977 ft | 454 kts | 131° |
| 2026-04-24 22:51 | 23.21786 | -73.75981 | 34978 ft | 453 kts | 131° |
| 2026-04-24 22:51 | 23.18399 | -73.70204 | 34954 ft | 454 kts | 130° |
| 2026-04-24 22:52 | 23.15006 | -73.64409 | 34943 ft | 454 kts | 130° |
| 2026-04-24 22:52 | 23.11615 | -73.58634 | 34960 ft | 454 kts | 130° |
| 2026-04-24 22:53 | 23.08206 | -73.52835 | 34971 ft | 454 kts | 130° |
| 2026-04-24 22:53 | 23.04807 | -73.47063 | 34975 ft | 453 kts | 130° |
| 2026-04-24 22:54 | 23.01419 | -73.41317 | 34977 ft | 453 kts | 130° |
| 2026-04-24 22:54 | 22.98019 | -73.35550 | 34979 ft | 453 kts | 130° |
| 2026-04-24 22:55 | 22.94638 | -73.29810 | 34960 ft | 453 kts | 131° |
| 2026-04-24 22:55 | 22.91251 | -73.24069 | 34976 ft | 452 kts | 131° |
| 2026-04-24 22:56 | 22.87858 | -73.18345 | 34983 ft | 451 kts | 131° |
| 2026-04-24 22:56 | 22.84466 | -73.12628 | 34986 ft | 450 kts | 131° |
| 2026-04-24 22:57 | 22.81076 | -73.06915 | 34957 ft | 450 kts | 131° |
| 2026-04-24 22:57 | 22.77692 | -73.01208 | 34969 ft | 450 kts | 131° |
| 2026-04-24 22:58 | 22.74303 | -72.95503 | 34972 ft | 450 kts | 131° |
| 2026-04-24 22:58 | 22.70908 | -72.89802 | 34968 ft | 450 kts | 131° |
| 2026-04-24 22:59 | 22.67516 | -72.84119 | 34974 ft | 449 kts | 131° |
| 2026-04-24 23:00 | 22.62434 | -72.75600 | 34978 ft | 449 kts | 131° |
| 2026-04-24 23:00 | 22.59045 | -72.69920 | 34979 ft | 449 kts | 131° |
| 2026-04-24 23:01 | 22.55674 | -72.64278 | 34981 ft | 449 kts | 131° |
| 2026-04-24 23:01 | 22.52268 | -72.58601 | 34969 ft | 448 kts | 131° |
| 2026-04-24 23:02 | 22.48875 | -72.52952 | 34971 ft | 448 kts | 131° |
| 2026-04-24 23:02 | 22.45475 | -72.47294 | 34973 ft | 449 kts | 131° |
| 2026-04-24 23:03 | 22.42096 | -72.41657 | 34953 ft | 449 kts | 131° |
| 2026-04-24 23:03 | 22.38697 | -72.35989 | 34956 ft | 450 kts | 131° |
| 2026-04-24 23:04 | 22.35284 | -72.30293 | 34964 ft | 450 kts | 131° |
| 2026-04-24 23:04 | 22.31874 | -72.24629 | 34954 ft | 450 kts | 131° |
| 2026-04-24 23:05 | 22.28459 | -72.18963 | 34959 ft | 451 kts | 131° |
| 2026-04-24 23:05 | 22.25021 | -72.13273 | 34961 ft | 452 kts | 131° |
| 2026-04-24 23:06 | 22.21611 | -72.07624 | 34960 ft | 452 kts | 131° |
| 2026-04-24 23:06 | 22.18158 | -72.01919 | 34972 ft | 452 kts | 131° |
| 2026-04-24 23:07 | 22.14717 | -71.96255 | 34977 ft | 452 kts | 131° |
| 2026-04-24 23:07 | 22.11283 | -71.90596 | 34965 ft | 452 kts | 132° |
| 2026-04-24 23:08 | 22.07841 | -71.84917 | 34968 ft | 452 kts | 132° |
| 2026-04-24 23:08 | 22.04393 | -71.79232 | 34947 ft | 453 kts | 132° |
| 2026-04-24 23:09 | 22.00935 | -71.73553 | 34959 ft | 454 kts | 132° |
| 2026-04-24 23:09 | 21.97468 | -71.67858 | 34965 ft | 455 kts | 132° |
| 2026-04-24 23:10 | 21.93993 | -71.62151 | 34968 ft | 456 kts | 132° |
| 2026-04-24 23:10 | 21.90521 | -71.56464 | 34976 ft | 456 kts | 133° |
| 2026-04-24 23:11 | 21.87035 | -71.50774 | 34959 ft | 457 kts | 133° |
| 2026-04-24 23:11 | 21.83538 | -71.45064 | 34962 ft | 458 kts | 133° |
| 2026-04-24 23:12 | 21.80028 | -71.39326 | 34966 ft | 459 kts | 133° |
| 2026-04-24 23:12 | 21.76521 | -71.33591 | 34970 ft | 460 kts | 133° |
| 2026-04-24 23:13 | 21.72993 | -71.27834 | 34971 ft | 460 kts | 133° |
| 2026-04-24 23:13 | 21.69476 | -71.22118 | 34975 ft | 460 kts | 133° |
| 2026-04-24 23:14 | 21.65945 | -71.16370 | 34960 ft | 460 kts | 133° |
| 2026-04-24 23:14 | 21.62428 | -71.10651 | 34967 ft | 460 kts | 133° |
| 2026-04-24 23:15 | 21.58892 | -71.04920 | 34975 ft | 460 kts | 133° |
| 2026-04-24 23:15 | 21.55343 | -70.99216 | 34986 ft | 459 kts | 133° |
| 2026-04-24 23:16 | 21.51729 | -70.93541 | 34985 ft | 459 kts | 134° |
| 2026-04-24 23:16 | 21.48131 | -70.87926 | 34975 ft | 459 kts | 134° |
| 2026-04-24 23:17 | 21.44523 | -70.82270 | 34979 ft | 459 kts | 133° |
| 2026-04-24 23:17 | 21.40917 | -70.76608 | 34984 ft | 459 kts | 133° |
| 2026-04-24 23:18 | 21.37304 | -70.70932 | 34987 ft | 459 kts | 133° |
| 2026-04-24 23:18 | 21.33701 | -70.65285 | 34989 ft | 459 kts | 134° |
| 2026-04-24 23:19 | 21.30091 | -70.59649 | 34994 ft | 459 kts | 134° |
| 2026-04-24 23:19 | 21.26480 | -70.54004 | 34966 ft | 459 kts | 134° |
| 2026-04-24 23:20 | 21.22879 | -70.48384 | 34967 ft | 460 kts | 134° |
| 2026-04-24 23:20 | 21.19244 | -70.42722 | 34975 ft | 460 kts | 134° |
| 2026-04-24 23:21 | 21.15629 | -70.37084 | 34978 ft | 460 kts | 134° |
| 2026-04-24 23:21 | 21.11993 | -70.31414 | 34979 ft | 460 kts | 134° |
| 2026-04-24 23:22 | 21.08374 | -70.25791 | 34986 ft | 460 kts | 134° |
| 2026-04-24 23:22 | 21.04734 | -70.20151 | 34986 ft | 460 kts | 134° |
| 2026-04-24 23:23 | 21.01101 | -70.14520 | 34973 ft | 461 kts | 134° |
| 2026-04-24 23:23 | 20.97450 | -70.08859 | 34974 ft | 461 kts | 134° |
| 2026-04-24 23:24 | 20.93817 | -70.03221 | 34983 ft | 461 kts | 134° |
| 2026-04-24 23:24 | 20.90173 | -69.97579 | 34963 ft | 461 kts | 133° |
| 2026-04-24 23:25 | 20.86531 | -69.91955 | 34980 ft | 460 kts | 133° |
| 2026-04-24 23:25 | 20.82883 | -69.86322 | 34974 ft | 460 kts | 133° |
| 2026-04-24 23:26 | 20.79245 | -69.80705 | 34981 ft | 460 kts | 132° |
| 2026-04-24 23:26 | 20.75623 | -69.75122 | 34983 ft | 460 kts | 132° |
| 2026-04-24 23:27 | 20.71964 | -69.69491 | 34991 ft | 459 kts | 132° |
| 2026-04-24 23:27 | 20.68320 | -69.63890 | 34987 ft | 459 kts | 132° |
| 2026-04-24 23:28 | 20.64693 | -69.58316 | 34995 ft | 459 kts | 132° |
| 2026-04-24 23:28 | 20.61039 | -69.52702 | 34982 ft | 459 kts | 132° |
| 2026-04-24 23:29 | 20.57407 | -69.47134 | 34997 ft | 459 kts | 132° |
| 2026-04-24 23:29 | 20.53752 | -69.41543 | 34996 ft | 458 kts | 132° |
| 2026-04-24 23:30 | 20.50111 | -69.35971 | 34976 ft | 458 kts | 132° |
| 2026-04-24 23:30 | 20.46471 | -69.30411 | 34982 ft | 458 kts | 132° |
| 2026-04-24 23:31 | 20.42845 | -69.24856 | 34984 ft | 458 kts | 132° |
| 2026-04-24 23:31 | 20.39187 | -69.19271 | 34986 ft | 458 kts | 132° |
| 2026-04-24 23:32 | 20.35539 | -69.13712 | 34981 ft | 458 kts | 133° |
| 2026-04-24 23:32 | 20.31875 | -69.08141 | 34978 ft | 459 kts | 132° |
| 2026-04-24 23:33 | 20.28239 | -69.02591 | 34975 ft | 460 kts | 132° |
| 2026-04-24 23:33 | 20.24575 | -68.97023 | 34978 ft | 460 kts | 133° |
| 2026-04-24 23:34 | 20.20841 | -68.91368 | 34792 ft | 468 kts | 132° |
| 2026-04-24 23:34 | 20.17124 | -68.85728 | 35095 ft | 467 kts | 133° |
| 2026-04-24 23:34 | 20.15255 | -68.82892 | 35336 ft | 470 kts | 133° |
| 2026-04-24 23:35 | 20.13375 | -68.80040 | 35575 ft | 471 kts | 133° |
| 2026-04-24 23:35 | 20.11513 | -68.77207 | 35808 ft | 471 kts | 133° |
| 2026-04-24 23:35 | 20.09642 | -68.74359 | 36046 ft | 470 kts | 133° |
| 2026-04-24 23:35 | 20.07749 | -68.71483 | 36294 ft | 470 kts | 133° |
| 2026-04-24 23:36 | 20.05912 | -68.68623 | 36547 ft | 470 kts | 132° |
| 2026-04-24 23:36 | 20.04107 | -68.65727 | 36797 ft | 470 kts | 131° |
| 2026-04-24 23:36 | 20.02334 | -68.62828 | 36966 ft | 470 kts | 131° |
| 2026-04-24 23:37 | 19.98763 | -68.56967 | 37163 ft | 471 kts | 131° |
| 2026-04-24 23:37 | 19.96993 | -68.54086 | 37504 ft | 470 kts | 132° |
| 2026-04-24 23:37 | 19.93382 | -68.48266 | 38212 ft | 468 kts | 133° |
| 2026-04-24 23:38 | 19.91592 | -68.45399 | 38574 ft | 467 kts | 133° |
| 2026-04-24 23:38 | 19.89802 | -68.42530 | 38869 ft | 466 kts | 133° |
| 2026-04-24 23:38 | 19.88021 | -68.39676 | 38972 ft | 466 kts | 133° |
| 2026-04-24 23:38 | 19.86225 | -68.36793 | 38996 ft | 466 kts | 133° |
| 2026-04-24 23:39 | 19.82653 | -68.31059 | 38993 ft | 465 kts | 133° |
| 2026-04-24 23:39 | 19.79094 | -68.25339 | 38994 ft | 465 kts | 133° |
| 2026-04-24 23:40 | 19.76123 | -68.20565 | 38994 ft | 465 kts | 133° |
| 2026-04-24 23:40 | 19.71957 | -68.13890 | 38995 ft | 465 kts | 133° |
| 2026-04-24 23:41 | 19.68985 | -68.09128 | 39001 ft | 465 kts | 133° |
| 2026-04-24 23:41 | 19.65412 | -68.03401 | 39003 ft | 465 kts | 133° |
| 2026-04-24 23:42 | 19.61832 | -67.97679 | 39007 ft | 465 kts | 133° |
| 2026-04-24 23:42 | 19.58263 | -67.91981 | 39004 ft | 465 kts | 133° |
| 2026-04-24 23:43 | 19.54663 | -67.86244 | 39006 ft | 465 kts | 133° |
| 2026-04-24 23:43 | 19.51092 | -67.80548 | 39006 ft | 465 kts | 133° |
| 2026-04-24 23:44 | 19.47513 | -67.74846 | 39007 ft | 465 kts | 133° |
| 2026-04-24 23:44 | 19.43946 | -67.69169 | 39004 ft | 465 kts | 133° |
| 2026-04-24 23:45 | 19.40360 | -67.63438 | 39004 ft | 465 kts | 133° |
| 2026-04-24 23:45 | 19.36789 | -67.57736 | 39004 ft | 465 kts | 133° |
| 2026-04-24 23:46 | 19.33214 | -67.52065 | 38969 ft | 465 kts | 132° |
| 2026-04-24 23:46 | 19.29602 | -67.46349 | 38972 ft | 466 kts | 132° |
| 2026-04-24 23:47 | 19.26010 | -67.40659 | 38975 ft | 467 kts | 132° |
| 2026-04-24 23:47 | 19.22405 | -67.34944 | 38981 ft | 468 kts | 132° |
| 2026-04-24 23:48 | 19.18780 | -67.29217 | 38987 ft | 468 kts | 132° |
| 2026-04-24 23:48 | 19.15149 | -67.23485 | 38992 ft | 468 kts | 132° |
| 2026-04-24 23:49 | 19.11546 | -67.17796 | 38971 ft | 469 kts | 132° |
| 2026-04-24 23:49 | 19.09719 | -67.14917 | 38743 ft | 469 kts | 132° |
| 2026-04-24 23:49 | 19.07901 | -67.12048 | 38406 ft | 469 kts | 132° |
| 2026-04-24 23:50 | 19.06093 | -67.09199 | 37746 ft | 471 kts | 132° |
| 2026-04-24 23:50 | 19.04255 | -67.06304 | 37128 ft | 472 kts | 132° |
| 2026-04-24 23:50 | 19.02410 | -67.03403 | 36411 ft | 476 kts | 131° |
| 2026-04-24 23:50 | 19.00567 | -67.00506 | 35730 ft | 479 kts | 131° |
| 2026-04-24 23:51 | 18.98732 | -66.97615 | 35290 ft | 476 kts | 131° |
| 2026-04-24 23:51 | 18.96894 | -66.94716 | 34771 ft | 474 kts | 131° |
| 2026-04-24 23:51 | 18.95036 | -66.91790 | 34211 ft | 473 kts | 131° |
| 2026-04-24 23:51 | 18.93212 | -66.88922 | 33658 ft | 472 kts | 131° |
| 2026-04-24 23:52 | 18.91396 | -66.86069 | 33139 ft | 469 kts | 131° |
| 2026-04-24 23:52 | 18.89588 | -66.83226 | 32606 ft | 467 kts | 131° |
| 2026-04-24 23:52 | 18.87764 | -66.80361 | 32070 ft | 464 kts | 131° |
| 2026-04-24 23:52 | 18.85978 | -66.77558 | 31550 ft | 461 kts | 130° |
| 2026-04-24 23:53 | 18.84185 | -66.74747 | 31035 ft | 459 kts | 130° |
| 2026-04-24 23:53 | 18.82418 | -66.71983 | 30530 ft | 456 kts | 130° |
| 2026-04-24 23:53 | 18.80650 | -66.69224 | 30030 ft | 453 kts | 130° |
| 2026-04-24 23:53 | 18.78887 | -66.66470 | 29492 ft | 449 kts | 130° |
| 2026-04-24 23:54 | 18.77282 | -66.63660 | 29029 ft | 450 kts | 121° |
| 2026-04-24 23:54 | 18.76176 | -66.60529 | 28566 ft | 453 kts | 109° |
| 2026-04-24 23:54 | 18.75670 | -66.57259 | 28124 ft | 454 kts | 97° |
| 2026-04-24 23:54 | 18.75462 | -66.53964 | 27675 ft | 450 kts | 97° |
| 2026-04-24 23:55 | 18.75253 | -66.50648 | 27225 ft | 447 kts | 97° |
| 2026-04-24 23:55 | 18.75043 | -66.47400 | 26782 ft | 444 kts | 97° |
| 2026-04-24 23:55 | 18.74833 | -66.44188 | 26338 ft | 441 kts | 97° |
| 2026-04-24 23:55 | 18.74620 | -66.40975 | 25893 ft | 439 kts | 97° |
| 2026-04-24 23:56 | 18.74400 | -66.37744 | 25401 ft | 438 kts | 97° |
| 2026-04-24 23:56 | 18.74181 | -66.34553 | 24951 ft | 437 kts | 97° |
| 2026-04-24 23:56 | 18.73962 | -66.31363 | 24463 ft | 436 kts | 97° |
| 2026-04-24 23:56 | 18.73748 | -66.28188 | 23995 ft | 435 kts | 97° |
| 2026-04-24 23:57 | 18.73535 | -66.25005 | 23533 ft | 433 kts | 97° |
| 2026-04-24 23:57 | 18.73325 | -66.21853 | 23157 ft | 426 kts | 97° |
| 2026-04-24 23:57 | 18.73120 | -66.18762 | 22687 ft | 423 kts | 97° |
| 2026-04-24 23:57 | 18.72912 | -66.15668 | 22214 ft | 419 kts | 97° |
| 2026-04-24 23:58 | 18.72707 | -66.12633 | 21757 ft | 416 kts | 97° |
| 2026-04-24 23:58 | 18.72501 | -66.09619 | 21302 ft | 412 kts | 97° |
| 2026-04-24 23:58 | 18.72294 | -66.06626 | 20849 ft | 408 kts | 97° |
| 2026-04-24 23:58 | 18.72084 | -66.03624 | 20380 ft | 404 kts | 97° |
| 2026-04-24 23:59 | 18.71877 | -66.00723 | 19946 ft | 400 kts | 97° |
| 2026-04-24 23:59 | 18.71672 | -65.97808 | 19515 ft | 397 kts | 97° |
| 2026-04-24 23:59 | 18.71472 | -65.94902 | 19080 ft | 393 kts | 96° |
| 2026-04-24 23:59 | 18.71280 | -65.92056 | 18646 ft | 388 kts | 96° |
| 2026-04-25 00:00 | 18.71092 | -65.89250 | 17877 ft | 381 kts | 96° |
| 2026-04-25 00:00 | 18.70902 | -65.86466 | 17146 ft | 372 kts | 96° |
| 2026-04-25 00:00 | 18.70720 | -65.83827 | 16861 ft | 359 kts | 96° |
| 2026-04-25 00:00 | 18.70536 | -65.81201 | 16445 ft | 356 kts | 96° |
| 2026-04-25 00:01 | 18.70351 | -65.78598 | 16021 ft | 354 kts | 96° |
| 2026-04-25 00:01 | 18.70169 | -65.76032 | 15606 ft | 352 kts | 96° |
| 2026-04-25 00:01 | 18.69987 | -65.73450 | 15325 ft | 346 kts | 96° |
| 2026-04-25 00:01 | 18.69810 | -65.70946 | 14938 ft | 344 kts | 96° |
| 2026-04-25 00:02 | 18.69631 | -65.68438 | 14517 ft | 343 kts | 96° |
| 2026-04-25 00:02 | 18.69451 | -65.65931 | 14038 ft | 344 kts | 96° |
| 2026-04-25 00:02 | 18.69269 | -65.63360 | 13295 ft | 351 kts | 95° |
| 2026-04-25 00:02 | 18.69087 | -65.60776 | 12541 ft | 357 kts | 96° |
| 2026-04-25 00:03 | 18.68902 | -65.58154 | 11801 ft | 361 kts | 96° |
| 2026-04-25 00:03 | 18.68711 | -65.55499 | 11073 ft | 363 kts | 96° |
| 2026-04-25 00:03 | 18.68519 | -65.52869 | 10361 ft | 359 kts | 96° |
| 2026-04-25 00:03 | 18.68329 | -65.50244 | 9650 ft | 352 kts | 96° |
| 2026-04-25 00:04 | 18.68149 | -65.47709 | 8889 ft | 343 kts | 96° |
| 2026-04-25 00:04 | 18.67977 | -65.45281 | 8429 ft | 324 kts | 96° |
| 2026-04-25 00:04 | 18.67814 | -65.42986 | 8181 ft | 302 kts | 95° |
| 2026-04-25 00:04 | 18.67660 | -65.40840 | 7938 ft | 288 kts | 95° |
| 2026-04-25 00:05 | 18.67508 | -65.38741 | 7704 ft | 286 kts | 96° |
| 2026-04-25 00:05 | 18.67355 | -65.36651 | 7464 ft | 282 kts | 96° |
| 2026-04-25 00:05 | 18.67042 | -65.34641 | 7228 ft | 278 kts | 110° |
| 2026-04-25 00:05 | 18.66087 | -65.32904 | 6992 ft | 274 kts | 133° |
| 2026-04-25 00:06 | 18.64595 | -65.31711 | 6760 ft | 271 kts | 155° |
| 2026-04-25 00:06 | 18.62864 | -65.30945 | 6528 ft | 272 kts | 158° |
| 2026-04-25 00:06 | 18.61091 | -65.30181 | 6281 ft | 273 kts | 158° |
| 2026-04-25 00:06 | 18.59347 | -65.29431 | 6033 ft | 270 kts | 157° |
| 2026-04-25 00:07 | 18.57624 | -65.28689 | 5780 ft | 268 kts | 157° |
| 2026-04-25 00:07 | 18.55908 | -65.27950 | 5540 ft | 267 kts | 157° |
| 2026-04-25 00:07 | 18.54170 | -65.27201 | 5294 ft | 267 kts | 157° |
| 2026-04-25 00:07 | 18.52456 | -65.26461 | 5057 ft | 267 kts | 156° |
| 2026-04-25 00:08 | 18.50755 | -65.25727 | 4809 ft | 265 kts | 156° |
| 2026-04-25 00:08 | 18.49057 | -65.24991 | 4558 ft | 265 kts | 157° |
| 2026-04-25 00:08 | 18.47355 | -65.24256 | 4315 ft | 265 kts | 157° |
| 2026-04-25 00:08 | 18.45639 | -65.23515 | 4064 ft | 262 kts | 156° |
| 2026-04-25 00:09 | 18.43976 | -65.22798 | 3824 ft | 258 kts | 156° |
| 2026-04-25 00:09 | 18.42338 | -65.22091 | 3581 ft | 252 kts | 155° |
| 2026-04-25 00:09 | 18.40731 | -65.21398 | 3343 ft | 247 kts | 156° |
| 2026-04-25 00:09 | 18.39152 | -65.20719 | 3108 ft | 242 kts | 156° |
| 2026-04-25 00:10 | 18.37616 | -65.20059 | 3001 ft | 231 kts | 156° |
| 2026-04-25 00:10 | 18.36178 | -65.19443 | 3000 ft | 217 kts | 155° |
| 2026-04-25 00:10 | 18.34814 | -65.18857 | 3000 ft | 206 kts | 155° |
| 2026-04-25 00:10 | 18.33585 | -65.18121 | 3000 ft | 204 kts | 131° |
| 2026-04-25 00:11 | 18.32941 | -65.16819 | 2999 ft | 202 kts | 98° |
| 2026-04-25 00:11 | 18.33063 | -65.15363 | 3001 ft | 198 kts | 78° |
| 2026-04-25 00:11 | 18.33140 | -65.13963 | 2855 ft | 191 kts | 95° |
| 2026-04-25 00:11 | 18.33108 | -65.12593 | 2611 ft | 184 kts | 90° |
| 2026-04-25 00:12 | 18.33140 | -65.11272 | 2361 ft | 175 kts | 87° |
| 2026-04-25 00:12 | 18.33186 | -65.10068 | 2156 ft | 156 kts | 89° |
| 2026-04-25 00:12 | 18.33231 | -65.08979 | 1955 ft | 142 kts | 87° |
| 2026-04-25 00:12 | 18.33273 | -65.07976 | 1787 ft | 133 kts | 88° |
| 2026-04-25 00:13 | 18.33314 | -65.07011 | 1612 ft | 131 kts | 87° |
| 2026-04-25 00:13 | 18.33356 | -65.06050 | 1432 ft | 130 kts | 88° |
| 2026-04-25 00:13 | 18.33396 | -65.05106 | 1261 ft | 129 kts | 89° |
| 2026-04-25 00:13 | 18.33437 | -65.04162 | 1100 ft | 131 kts | 88° |
| 2026-04-25 00:14 | 18.33477 | -65.03220 | 932 ft | 130 kts | 88° |
| 2026-04-25 00:14 | 18.33518 | -65.02273 | 779 ft | 130 kts | 88° |
| 2026-04-25 00:14 | 18.33559 | -65.01327 | 615 ft | 129 kts | 88° |
| 2026-04-25 00:14 | 18.33608 | -65.00374 | 450 ft | 130 kts | 88° |
| 2026-04-25 00:15 | 18.33643 | -64.99432 | 272 ft | 129 kts | 86° |
| 2026-04-25 00:15 | 18.33684 | -64.98485 | 104 ft | 128 kts | 86° |
| 2026-04-25 00:15 | 18.33720 | -64.97605 | 40 ft | 107 kts | 87° |
| 2026-04-25 00:15 | 18.33740 | -64.97091 | 38 ft | 42 kts | 87° |
| 2026-04-25 00:16 | 18.33751 | -64.96797 | 30 ft | 34 kts | 87° |
| 2026-04-25 00:16 | 18.33708 | -64.96688 | 32 ft | 15 kts | 180° |
| 2026-04-25 00:16 | 18.33670 | -64.96779 | 32 ft | 16 kts | 271° |
| 2026-04-25 00:16 | 18.33668 | -64.96866 | 32 ft | 7 kts | 266° |
| 2026-04-25 00:17 | 18.33664 | -64.96929 | 32 ft | 10 kts | 266° |
| 2026-04-25 00:17 | 18.33659 | -64.97015 | 32 ft | 13 kts | 267° |
| 2026-04-25 00:17 | 18.33656 | -64.97108 | 32 ft | 11 kts | 268° |
| 2026-04-25 00:17 | 18.33654 | -64.97180 | 32 ft | 2 kts | 269° |
| 2026-04-25 00:18 | 18.33653 | -64.97198 | 32 ft | 3 kts | 268° |
| 2026-04-25 00:18 | 18.33644 | -64.97210 | 32 ft | 2 kts | 202° |
| 2026-04-25 00:18 | 18.33625 | -64.97213 | 32 ft | 4 kts | 186° |
| 2026-04-25 00:18 | 18.33592 | -64.97212 | 32 ft | 3 kts | 178° |
| 2026-04-25 00:19 | 18.33580 | -64.97212 | 32 ft | 0 kts | 178° |
| 2026-04-25 00:19 | 18.33577 | -64.97212 | 32 ft | 0 kts | 178° |